Time;durP1;ratioP1;P1;durP2;ratioP2;P2;SDS_P1;SDS_P2;PMS_P1;PMS_P2;Temp;Humidity;BMP_temperature;BMP_pressure;BME280_temperature;BME280_humidity;BME280_pressure;Samples;Min_cycle;Max_cycle;Signal;HPM_P1;HPM_P2
2023/10/07 00:01:02;;;;;;;8.43;6.15;;;;;;;;;;4995031;28;20225;-84
2023/10/07 00:03:30;;;;;;;7.75;6.00;;;;;;;;;;4961530;28;20226;-86
2023/10/07 00:06:01;;;;;;;7.45;6.75;;;;;;;;;;4957461;28;20277;-83
2023/10/07 00:08:29;;;;;;;9.60;6.40;;;;;;;;;;4963987;28;20744;-88
2023/10/07 00:10:58;;;;;;;6.72;6.05;;;;;;;;;;4974040;28;20308;-85
2023/10/07 00:13:31;;;;;;;10.55;6.05;;;;;;;;;;4952412;28;20275;-84
2023/10/07 00:16:02;;;;;;;8.65;6.03;;;;;;;;;;4964561;28;20213;-84
2023/10/07 00:18:28;;;;;;;8.05;5.75;;;;;;;;;;5023702;28;20278;-88
2023/10/07 00:20:55;;;;;;;9.40;6.00;;;;;;;;;;4994409;28;20289;-87
2023/10/07 00:23:26;;;;;;;6.88;5.55;;;;;;;;;;4995801;28;20240;-85
2023/10/07 00:25:53;;;;;;;10.57;6.00;;;;;;;;;;4977803;28;20576;-84
2023/10/07 00:28:32;;;;;;;9.70;5.80;;;;;;;;;;5003288;28;20206;-85
2023/10/07 00:31:05;;;;;;;7.47;5.63;;;;;;;;;;5027375;28;20213;-87
2023/10/07 00:33:46;;;;;;;8.70;6.07;;;;;;;;;;4962022;28;20253;-83
2023/10/07 00:36:33;;;;;;;6.88;5.60;;;;;;;;;;4968324;28;20221;-87
2023/10/07 00:39:06;;;;;;;10.23;6.35;;;;;;;;;;5001489;28;20743;-87
2023/10/07 00:41:54;;;;;;;7.43;5.60;;;;;;;;;;4956902;28;20239;-86
2023/10/07 00:44:23;;;;;;;11.07;6.38;;;;;;;;;;4967733;28;20233;-88
2023/10/07 00:47:12;;;;;;;8.00;6.40;;;;;;;;;;5014946;28;20225;-85
2023/10/07 00:49:57;;;;;;;9.82;6.00;;;;;;;;;;4977792;28;20222;-85
2023/10/07 00:55:00;;;;;;;9.93;5.40;;;;;;;;;;4994402;28;20209;-86
2023/10/07 00:57:35;;;;;;;8.90;5.57;;;;;;;;;;4973930;28;20222;-86
2023/10/07 01:02:51;;;;;;;10.93;5.45;;;;;;;;;;4978954;28;20240;-85
2023/10/07 01:05:24;;;;;;;9.77;5.75;;;;;;;;;;4995799;28;20249;-86
2023/10/07 01:07:53;;;;;;;12.52;6.20;;;;;;;;;;4972034;28;20701;-84
2023/10/07 01:10:30;;;;;;;8.95;6.13;;;;;;;;;;4976274;28;20344;-84
2023/10/07 01:13:00;;;;;;;9.88;5.80;;;;;;;;;;4965815;28;20222;-87
2023/10/07 01:15:35;;;;;;;11.63;5.90;;;;;;;;;;4965382;28;20232;-86
2023/10/07 01:18:05;;;;;;;7.85;5.68;;;;;;;;;;4965836;28;20209;-85
2023/10/07 01:20:59;;;;;;;11.32;5.60;;;;;;;;;;4992381;28;20238;-86
2023/10/07 01:23:32;;;;;;;7.50;5.72;;;;;;;;;;4966317;28;20287;-84
2023/10/07 01:26:01;;;;;;;6.60;5.30;;;;;;;;;;4980821;28;20717;-85
2023/10/07 01:28:32;;;;;;;15.35;5.80;;;;;;;;;;4960918;28;20226;-86
2023/10/07 01:31:07;;;;;;;11.27;5.50;;;;;;;;;;4964309;28;20245;-85
2023/10/07 01:33:46;;;;;;;12.77;6.07;;;;;;;;;;5007221;28;20303;-84
2023/10/07 01:36:24;;;;;;;9.18;5.38;;;;;;;;;;4981341;28;20597;-83
2023/10/07 01:38:53;;;;;;;11.25;5.72;;;;;;;;;;4993238;28;20224;-84
2023/10/07 01:41:27;;;;;;;7.35;6.03;;;;;;;;;;4985781;28;20317;-84
2023/10/07 01:43:59;;;;;;;9.65;5.20;;;;;;;;;;4945056;28;20232;-85
2023/10/07 01:46:31;;;;;;;9.68;5.75;;;;;;;;;;4977311;28;20216;-84
2023/10/07 01:49:04;;;;;;;9.75;5.82;;;;;;;;;;4958935;28;20220;-85
2023/10/07 01:51:32;;;;;;;10.07;5.85;;;;;;;;;;4973269;28;20256;-85
2023/10/07 01:54:02;;;;;;;6.60;5.43;;;;;;;;;;4977479;28;20240;-86
2023/10/07 01:56:29;;;;;;;11.65;5.18;;;;;;;;;;4998067;28;20221;-86
2023/10/07 01:59:03;;;;;;;7.20;5.53;;;;;;;;;;4979214;28;20682;-86
2023/10/07 02:01:32;;;;;;;9.23;5.47;;;;;;;;;;5006649;28;20255;-85
2023/10/07 02:04:07;;;;;;;7.63;5.95;;;;;;;;;;5017500;28;20239;-84
2023/10/07 02:06:49;;;;;;;8.77;5.30;;;;;;;;;;4967670;28;20650;-87
2023/10/07 02:09:23;;;;;;;10.73;6.13;;;;;;;;;;4954855;28;20229;-83
2023/10/07 02:11:49;;;;;;;8.02;5.43;;;;;;;;;;4990764;28;20206;-84
2023/10/07 02:14:21;;;;;;;7.05;5.13;;;;;;;;;;4985094;28;20217;-85
2023/10/07 02:16:46;;;;;;;10.18;5.45;;;;;;;;;;4950022;28;20218;-86
2023/10/07 02:19:14;;;;;;;10.95;5.32;;;;;;;;;;4960695;28;20222;-85
2023/10/07 02:21:42;;;;;;;8.75;5.07;;;;;;;;;;4957651;28;20233;-86
2023/10/07 02:24:09;;;;;;;7.82;5.35;;;;;;;;;;4966530;28;20236;-87
2023/10/07 02:26:41;;;;;;;7.80;6.00;;;;;;;;;;4978667;28;20237;-87
2023/10/07 02:29:09;;;;;;;8.45;6.35;;;;;;;;;;5000560;28;20225;-85
2023/10/07 02:31:43;;;;;;;9.70;6.82;;;;;;;;;;4987738;28;20222;-87
2023/10/07 02:34:28;;;;;;;7.45;6.30;;;;;;;;;;4939433;28;20224;-83
2023/10/07 02:37:12;;;;;;;9.20;6.53;;;;;;;;;;4979803;28;20232;-86
2023/10/07 02:39:47;;;;;;;9.18;6.65;;;;;;;;;;4984001;28;20229;-86
2023/10/07 02:42:21;;;;;;;7.43;6.65;;;;;;;;;;4963161;28;20228;-87
2023/10/07 02:45:00;;;;;;;9.05;7.47;;;;;;;;;;4974657;28;20233;-86
2023/10/07 02:47:32;;;;;;;12.70;7.53;;;;;;;;;;4971369;28;20217;-86
2023/10/07 02:50:03;;;;;;;8.55;7.53;;;;;;;;;;4974126;28;20241;-88
2023/10/07 02:52:36;;;;;;;11.73;8.32;;;;;;;;;;4984819;28;20221;-86
2023/10/07 02:58:03;;;;;;;12.90;9.18;;;;;;;;;;4978069;28;20225;-86
2023/10/07 03:00:39;;;;;;;11.63;9.90;;;;;;;;;;5007960;28;20236;-86
2023/10/07 03:03:19;;;;;;;17.30;10.48;;;;;;;;;;4973120;28;20224;-87
2023/10/07 03:05:58;;;;;;;15.43;10.77;;;;;;;;;;5011302;28;20231;-86
2023/10/07 03:11:20;;;;;;;14.40;11.35;;;;;;;;;;5008095;28;20216;-86
2023/10/07 03:13:49;;;;;;;13.43;11.60;;;;;;;;;;4986683;28;20233;-86
2023/10/07 03:24:10;;;;;;;16.08;13.60;;;;;;;;;;4984097;28;20249;-89
2023/10/07 03:26:43;;;;;;;19.42;14.63;;;;;;;;;;4975967;28;20236;-87
2023/10/07 03:29:16;;;;;;;17.45;14.98;;;;;;;;;;4984377;28;20216;-85
2023/10/07 03:34:12;;;;;;;16.92;15.15;;;;;;;;;;4994295;28;20234;-84
2023/10/07 03:36:46;;;;;;;16.35;14.95;;;;;;;;;;4950813;28;20213;-87
2023/10/07 03:41:47;;;;;;;16.60;15.02;;;;;;;;;;4970504;28;20316;-84
2023/10/07 03:44:19;;;;;;;18.77;16.95;;;;;;;;;;4967198;28;20262;-86
2023/10/07 03:46:54;;;;;;;18.25;16.45;;;;;;;;;;4985060;28;20320;-87
2023/10/07 03:49:21;;;;;;;18.08;16.38;;;;;;;;;;4992267;28;20610;-86
2023/10/07 03:52:03;;;;;;;19.73;16.90;;;;;;;;;;4975686;28;20265;-87
2023/10/07 03:54:32;;;;;;;19.95;16.98;;;;;;;;;;4961895;28;20225;-83
2023/10/07 03:57:00;;;;;;;18.10;16.60;;;;;;;;;;4999233;28;20236;-87
2023/10/07 04:03:59;;;;;;;17.63;16.15;;;;;;;;;;4997431;28;20631;-86
2023/10/07 04:06:30;;;;;;;20.30;18.20;;;;;;;;;;4969671;28;20217;-86
2023/10/07 04:09:05;;;;;;;21.42;19.30;;;;;;;;;;4979150;28;20206;-85
2023/10/07 04:11:36;;;;;;;21.10;19.02;;;;;;;;;;4980291;28;20229;-86
2023/10/07 04:14:08;;;;;;;22.23;19.97;;;;;;;;;;4946193;28;20267;-86
2023/10/07 04:16:36;;;;;;;22.63;20.20;;;;;;;;;;4985833;28;20293;-87
2023/10/07 04:21:42;;;;;;;21.15;19.15;;;;;;;;;;4995168;28;20219;-83
2023/10/07 04:24:11;;;;;;;22.08;19.77;;;;;;;;;;4962986;28;20946;-87
2023/10/07 04:26:42;;;;;;;21.65;19.65;;;;;;;;;;4985713;28;20256;-87
2023/10/07 04:29:14;;;;;;;21.20;19.13;;;;;;;;;;5002089;28;20300;-86
2023/10/07 04:31:51;;;;;;;22.73;19.60;;;;;;;;;;4981560;28;20217;-86
2023/10/07 04:34:23;;;;;;;21.23;19.33;;;;;;;;;;5006548;28;20209;-86
2023/10/07 04:37:13;;;;;;;21.70;19.65;;;;;;;;;;4994308;28;20233;-85
2023/10/07 04:40:27;;;;;;;22.05;19.83;;;;;;;;;;4993083;28;20251;-85
2023/10/07 04:42:36;;;;;;;19.83;17.83;;;;;;;;;;4988299;28;20234;-88
2023/10/07 04:48:23;;;;;;;20.52;18.55;;;;;;;;;;5014286;28;20236;-87
2023/10/07 04:51:02;;;;;;;20.38;18.33;;;;;;;;;;5000232;28;20920;-86
2023/10/07 04:53:37;;;;;;;19.38;17.38;;;;;;;;;;4985305;28;20228;-84
2023/10/07 04:56:04;;;;;;;20.58;18.60;;;;;;;;;;5011145;28;20227;-87
2023/10/07 04:58:31;;;;;;;20.02;17.98;;;;;;;;;;5000411;28;20332;-84
2023/10/07 05:01:04;;;;;;;20.25;18.52;;;;;;;;;;5002436;28;20271;-85
2023/10/07 05:03:34;;;;;;;19.80;18.00;;;;;;;;;;4958388;28;20256;-85
2023/10/07 05:06:00;;;;;;;22.37;18.60;;;;;;;;;;4966701;28;20277;-86
2023/10/07 05:08:27;;;;;;;19.88;18.17;;;;;;;;;;4964089;28;20221;-84
2023/10/07 05:10:54;;;;;;;19.77;17.98;;;;;;;;;;4961964;28;20264;-84
2023/10/07 05:13:20;;;;;;;19.08;17.42;;;;;;;;;;4948641;28;20229;-86
2023/10/07 05:15:45;;;;;;;19.55;17.73;;;;;;;;;;4987775;28;20313;-87
2023/10/07 05:18:12;;;;;;;23.10;18.85;;;;;;;;;;4942970;28;20229;-84
2023/10/07 05:20:39;;;;;;;19.05;17.42;;;;;;;;;;4970653;28;20229;-86
2023/10/07 05:23:06;;;;;;;19.77;17.08;;;;;;;;;;4992378;28;20228;-86
2023/10/07 05:25:43;;;;;;;17.67;16.30;;;;;;;;;;4979943;28;20280;-84
2023/10/07 05:28:17;;;;;;;17.92;16.33;;;;;;;;;;4967181;28;20217;-85
2023/10/07 05:30:50;;;;;;;18.58;16.85;;;;;;;;;;4988758;28;20687;-86
2023/10/07 05:33:20;;;;;;;19.30;17.45;;;;;;;;;;4959523;28;20229;-86
2023/10/07 05:35:49;;;;;;;19.55;17.58;;;;;;;;;;4983212;28;20210;-85
2023/10/07 05:38:19;;;;;;;20.60;18.80;;;;;;;;;;4997028;28;20271;-84
2023/10/07 05:40:47;;;;;;;21.05;19.08;;;;;;;;;;4996661;28;20236;-86
2023/10/07 05:43:16;;;;;;;22.27;19.88;;;;;;;;;;4977087;28;20247;-85
2023/10/07 05:45:42;;;;;;;20.30;18.70;;;;;;;;;;5014285;28;20216;-84
2023/10/07 05:48:08;;;;;;;21.77;19.80;;;;;;;;;;4959807;28;20230;-83
2023/10/07 05:50:35;;;;;;;21.27;19.33;;;;;;;;;;5002493;28;20201;-87
2023/10/07 05:53:04;;;;;;;21.67;19.77;;;;;;;;;;4960573;28;20214;-84
2023/10/07 05:55:33;;;;;;;22.98;20.92;;;;;;;;;;4994604;28;20232;-87
2023/10/07 05:58:02;;;;;;;22.35;20.17;;;;;;;;;;4982217;28;20242;-85
2023/10/07 06:00:31;;;;;;;30.38;20.45;;;;;;;;;;4991737;28;20604;-83
2023/10/07 06:02:59;;;;;;;24.10;20.77;;;;;;;;;;4980676;28;20221;-84
2023/10/07 06:05:28;;;;;;;22.95;20.92;;;;;;;;;;4962700;28;20221;-85
2023/10/07 06:07:57;;;;;;;25.08;21.55;;;;;;;;;;4989633;28;20272;-87
2023/10/07 06:10:24;;;;;;;24.23;19.92;;;;;;;;;;4961568;28;20280;-86
2023/10/07 06:12:53;;;;;;;28.55;21.65;;;;;;;;;;4966905;28;20247;-84
2023/10/07 06:15:20;;;;;;;25.80;21.52;;;;;;;;;;4952763;28;20573;-85
2023/10/07 06:17:46;;;;;;;24.25;20.90;;;;;;;;;;4948793;28;20226;-86
2023/10/07 06:20:17;;;;;;;24.23;21.83;;;;;;;;;;4957044;28;20288;-87
2023/10/07 06:22:45;;;;;;;24.08;21.65;;;;;;;;;;4982269;28;20246;-83
2023/10/07 06:25:30;;;;;;;23.70;21.35;;;;;;;;;;4962464;28;20221;-84
2023/10/07 06:28:00;;;;;;;27.83;22.05;;;;;;;;;;4995531;28;20590;-85
2023/10/07 06:30:28;;;;;;;23.80;21.48;;;;;;;;;;4982298;28;20216;-85
2023/10/07 06:32:56;;;;;;;25.77;22.52;;;;;;;;;;4996643;28;20287;-83
2023/10/07 06:35:24;;;;;;;26.75;22.92;;;;;;;;;;4966440;28;20229;-86
2023/10/07 06:37:57;;;;;;;29.25;24.92;;;;;;;;;;4976791;28;20268;-83
2023/10/07 06:40:28;;;;;;;25.98;23.42;;;;;;;;;;4974223;28;20238;-83
2023/10/07 06:43:01;;;;;;;29.88;25.13;;;;;;;;;;4993685;28;20237;-84
2023/10/07 06:45:35;;;;;;;25.23;22.65;;;;;;;;;;4990406;28;20752;-84
2023/10/07 06:48:08;;;;;;;27.73;25.00;;;;;;;;;;5006142;28;20212;-87
2023/10/07 06:50:46;;;;;;;30.38;24.17;;;;;;;;;;4993671;28;20225;-85
2023/10/07 06:53:12;;;;;;;27.50;24.67;;;;;;;;;;4994982;28;20227;-86
2023/10/07 06:55:44;;;;;;;30.02;25.15;;;;;;;;;;5003725;28;20217;-82
2023/10/07 06:58:14;;;;;;;28.42;25.33;;;;;;;;;;4952998;28;20218;-86
2023/10/07 07:00:50;;;;;;;28.88;25.70;;;;;;;;;;4965400;28;20241;-88
2023/10/07 07:03:18;;;;;;;30.52;26.35;;;;;;;;;;4962737;28;20236;-86
2023/10/07 07:05:46;;;;;;;30.65;27.55;;;;;;;;;;4967605;28;20226;-86
2023/10/07 07:08:22;;;;;;;29.98;26.92;;;;;;;;;;4968967;28;20221;-85
2023/10/07 07:10:55;;;;;;;43.55;27.55;;;;;;;;;;5003843;28;20231;-83
2023/10/07 07:13:27;;;;;;;33.42;27.52;;;;;;;;;;4965848;28;20316;-86
2023/10/07 07:15:57;;;;;;;29.77;26.25;;;;;;;;;;4985759;28;20308;-86
2023/10/07 07:18:28;;;;;;;30.23;27.02;;;;;;;;;;4965035;28;21311;-86
2023/10/07 07:21:31;;;;;;;36.42;27.65;;;;;;;;;;4958531;28;20225;-86
2023/10/07 07:23:58;;;;;;;39.20;28.88;;;;;;;;;;4977082;28;20720;-87
2023/10/07 07:26:25;;;;;;;31.38;26.88;;;;;;;;;;4993553;28;20231;-85
2023/10/07 07:28:56;;;;;;;31.33;28.13;;;;;;;;;;4992503;28;20251;-87
2023/10/07 07:31:26;;;;;;;29.67;26.52;;;;;;;;;;4966263;28;20248;-84
2023/10/07 07:34:05;;;;;;;29.85;26.83;;;;;;;;;;4994691;28;20235;-84
2023/10/07 07:36:38;;;;;;;30.58;27.52;;;;;;;;;;4969971;28;20315;-85
2023/10/07 07:39:17;;;;;;;30.98;27.65;;;;;;;;;;4985783;28;20818;-84
2023/10/07 07:42:00;;;;;;;32.53;27.58;;;;;;;;;;4977745;28;20226;-86
2023/10/07 07:44:32;;;;;;;30.15;26.92;;;;;;;;;;4944129;28;20235;-86
2023/10/07 07:47:05;;;;;;;33.58;26.10;;;;;;;;;;4997210;28;20697;-86
2023/10/07 07:49:38;;;;;;;31.58;25.90;;;;;;;;;;4969807;28;20226;-84
2023/10/07 07:52:08;;;;;;;35.10;26.67;;;;;;;;;;4988220;28;20347;-85
2023/10/07 07:54:33;;;;;;;33.20;27.42;;;;;;;;;;4947170;28;20218;-86
2023/10/07 07:57:04;;;;;;;30.33;27.08;;;;;;;;;;4962902;28;20225;-84
2023/10/07 07:59:32;;;;;;;29.73;26.08;;;;;;;;;;4987315;28;20225;-83
2023/10/07 08:02:15;;;;;;;35.53;26.05;;;;;;;;;;4964447;28;20361;-82
2023/10/07 08:04:48;;;;;;;29.42;25.65;;;;;;;;;;4992741;28;20227;-85
2023/10/07 08:07:23;;;;;;;30.38;25.70;;;;;;;;;;4967025;28;20244;-84
2023/10/07 08:09:53;;;;;;;27.75;25.05;;;;;;;;;;4990588;28;20230;-85
2023/10/07 08:12:34;;;;;;;30.67;25.60;;;;;;;;;;4946299;28;20305;-85
2023/10/07 08:17:51;;;;;;;26.20;23.70;;;;;;;;;;5002889;28;20221;-86
2023/10/07 08:20:28;;;;;;;28.25;25.25;;;;;;;;;;4977238;28;20225;-83
2023/10/07 08:23:06;;;;;;;27.75;24.77;;;;;;;;;;4978531;28;20217;-86
2023/10/07 08:25:38;;;;;;;33.00;25.88;;;;;;;;;;4988456;28;20313;-85
2023/10/07 08:28:18;;;;;;;28.10;25.35;;;;;;;;;;4992263;28;20224;-86
2023/10/07 08:30:47;;;;;;;31.13;24.35;;;;;;;;;;4968154;28;20723;-84
2023/10/07 08:33:15;;;;;;;32.83;25.50;;;;;;;;;;4967716;28;20292;-83
2023/10/07 08:35:47;;;;;;;30.00;26.67;;;;;;;;;;4973555;28;20225;-83
2023/10/07 08:38:29;;;;;;;28.65;25.70;;;;;;;;;;4996862;28;20283;-83
2023/10/07 08:41:04;;;;;;;28.10;25.40;;;;;;;;;;4976854;28;20225;-83
2023/10/07 08:44:03;;;;;;;29.30;26.20;;;;;;;;;;4971356;28;20235;-83
2023/10/07 08:46:36;;;;;;;29.55;25.92;;;;;;;;;;5010421;28;20221;-85
2023/10/07 08:49:12;;;;;;;28.95;26.13;;;;;;;;;;4981394;28;20232;-85
2023/10/07 08:51:41;;;;;;;29.85;26.85;;;;;;;;;;4978746;28;20232;-86
2023/10/07 08:54:26;;;;;;;28.67;25.95;;;;;;;;;;4976306;28;20276;-86
2023/10/07 08:56:57;;;;;;;28.10;25.10;;;;;;;;;;4972142;28;20229;-83
2023/10/07 08:59:33;;;;;;;31.23;27.15;;;;;;;;;;4975362;28;20228;-83
2023/10/07 09:02:04;;;;;;;28.52;25.60;;;;;;;;;;4957857;28;20229;-85
2023/10/07 09:04:33;;;;;;;27.90;25.02;;;;;;;;;;4972994;28;20240;-86
2023/10/07 09:07:09;;;;;;;27.25;24.63;;;;;;;;;;4968239;28;20218;-84
2023/10/07 09:09:44;;;;;;;28.17;25.40;;;;;;;;;;4985468;28;20279;-86
2023/10/07 09:12:18;;;;;;;27.58;24.95;;;;;;;;;;4998969;28;20221;-88
2023/10/07 09:14:52;;;;;;;30.25;24.98;;;;;;;;;;4977478;28;20221;-84
2023/10/07 09:17:23;;;;;;;30.63;27.83;;;;;;;;;;4969068;28;20316;-84
2023/10/07 09:19:52;;;;;;;30.60;27.65;;;;;;;;;;4957750;28;20228;-85
2023/10/07 09:22:24;;;;;;;28.27;25.35;;;;;;;;;;4970001;28;20655;-85
2023/10/07 09:25:08;;;;;;;29.10;26.10;;;;;;;;;;4989155;28;20236;-87
2023/10/07 09:27:56;;;;;;;28.42;25.60;;;;;;;;;;5000518;28;20904;-84
2023/10/07 09:33:17;;;;;;;28.05;25.30;;;;;;;;;;4986156;28;20229;-87
2023/10/07 09:38:48;;;;;;;30.13;26.98;;;;;;;;;;4987886;28;20718;-84
2023/10/07 09:43:51;;;;;;;31.25;28.25;;;;;;;;;;4977350;28;20236;-85
2023/10/07 09:46:27;;;;;;;33.17;26.50;;;;;;;;;;4962859;28;20229;-87
2023/10/07 09:49:03;;;;;;;29.95;26.73;;;;;;;;;;4990118;28;20233;-88
2023/10/07 09:51:34;;;;;;;30.67;27.48;;;;;;;;;;4970841;28;21658;-86
2023/10/07 09:54:22;;;;;;;31.05;27.90;;;;;;;;;;4948238;28;20334;-84
2023/10/07 09:57:19;;;;;;;30.50;27.27;;;;;;;;;;4988035;28;20237;-87
2023/10/07 10:00:12;;;;;;;28.33;25.63;;;;;;;;;;4977548;28;20309;-87
2023/10/07 10:03:12;;;;;;;29.20;26.40;;;;;;;;;;5006098;28;20225;-86
2023/10/07 10:05:44;;;;;;;28.20;25.40;;;;;;;;;;4997100;28;20236;-88
2023/10/07 10:08:35;;;;;;;29.30;26.23;;;;;;;;;;4980217;28;20252;-87
2023/10/07 10:11:09;;;;;;;29.58;26.58;;;;;;;;;;4972130;28;20230;-84
2023/10/07 10:16:26;;;;;;;29.30;26.17;;;;;;;;;;4978083;28;20229;-87
2023/10/07 10:19:12;;;;;;;29.52;26.70;;;;;;;;;;4964525;28;20235;-85
2023/10/07 10:21:40;;;;;;;28.95;26.45;;;;;;;;;;4977035;28;20229;-84
2023/10/07 10:24:12;;;;;;;29.17;26.20;;;;;;;;;;4976750;28;20324;-87
2023/10/07 10:26:40;;;;;;;29.30;25.98;;;;;;;;;;4978471;28;20228;-84
2023/10/07 10:29:20;;;;;;;29.40;26.42;;;;;;;;;;4979713;28;20227;-85
2023/10/07 10:31:50;;;;;;;28.48;25.10;;;;;;;;;;4972907;28;20670;-85
2023/10/07 10:34:20;;;;;;;29.83;26.60;;;;;;;;;;4970423;28;20206;-87
2023/10/07 10:36:55;;;;;;;31.95;25.60;;;;;;;;;;4945445;28;20722;-85
2023/10/07 10:39:31;;;;;;;28.88;25.63;;;;;;;;;;5011173;28;20603;-84
2023/10/07 10:42:09;;;;;;;29.33;26.10;;;;;;;;;;4979531;28;20335;-87
2023/10/07 10:44:38;;;;;;;28.20;25.23;;;;;;;;;;4996300;28;20364;-85
2023/10/07 10:47:06;;;;;;;34.17;25.75;;;;;;;;;;4982473;28;20229;-83
2023/10/07 10:49:35;;;;;;;29.20;24.33;;;;;;;;;;4965777;28;20220;-83
2023/10/07 10:52:08;;;;;;;26.10;23.75;;;;;;;;;;4981268;28;20229;-86
2023/10/07 10:54:35;;;;;;;25.88;23.55;;;;;;;;;;4963800;28;20311;-86
2023/10/07 10:57:09;;;;;;;25.92;23.27;;;;;;;;;;4999822;28;20271;-86
2023/10/07 10:59:47;;;;;;;24.00;21.50;;;;;;;;;;4965108;28;20224;-87
2023/10/07 11:02:23;;;;;;;25.85;21.50;;;;;;;;;;4977999;28;20267;-87
2023/10/07 11:04:55;;;;;;;29.40;21.35;;;;;;;;;;4960655;28;20320;-84
2023/10/07 11:07:24;;;;;;;22.70;20.48;;;;;;;;;;4971711;28;20229;-85
2023/10/07 11:09:52;;;;;;;21.83;19.55;;;;;;;;;;4993353;28;20220;-84
2023/10/07 11:12:27;;;;;;;23.13;20.13;;;;;;;;;;4988520;28;20225;-85
2023/10/07 11:15:02;;;;;;;21.48;19.10;;;;;;;;;;5006974;28;20224;-85
2023/10/07 11:17:28;;;;;;;20.55;18.45;;;;;;;;;;5013071;28;20223;-85
2023/10/07 11:19:54;;;;;;;20.60;18.25;;;;;;;;;;4997473;28;20230;-82
2023/10/07 11:22:23;;;;;;;19.48;17.52;;;;;;;;;;5014462;28;20225;-85
2023/10/07 11:24:51;;;;;;;18.70;16.95;;;;;;;;;;4998690;28;20321;-84
2023/10/07 11:27:23;;;;;;;20.73;17.10;;;;;;;;;;4966292;28;20240;-85
2023/10/07 11:30:11;;;;;;;19.30;16.67;;;;;;;;;;4996970;28;20228;-84
2023/10/07 11:32:40;;;;;;;17.67;15.50;;;;;;;;;;4957808;28;20231;-88
2023/10/07 11:35:16;;;;;;;21.33;16.23;;;;;;;;;;4987713;28;20758;-85
2023/10/07 11:37:57;;;;;;;19.58;14.50;;;;;;;;;;4991606;28;20220;-85
2023/10/07 11:40:27;;;;;;;15.32;13.82;;;;;;;;;;5002357;28;20299;-86
2023/10/07 11:42:56;;;;;;;20.48;14.48;;;;;;;;;;5012757;28;20256;-83
2023/10/07 11:45:22;;;;;;;16.40;14.48;;;;;;;;;;4983169;28;20285;-86
2023/10/07 11:47:50;;;;;;;22.38;14.95;;;;;;;;;;5004931;28;20594;-87
2023/10/07 11:50:20;;;;;;;18.60;12.80;;;;;;;;;;4987481;28;20252;-85
2023/10/07 11:52:46;;;;;;;15.98;13.30;;;;;;;;;;4969231;28;20233;-87
2023/10/07 11:55:17;;;;;;;13.82;12.45;;;;;;;;;;4954814;28;20234;-86
2023/10/07 11:57:44;;;;;;;14.35;12.70;;;;;;;;;;4955688;28;20576;-85
2023/10/07 12:00:23;;;;;;;18.33;12.20;;;;;;;;;;4983635;28;20320;-84
2023/10/07 12:02:52;;;;;;;16.50;12.02;;;;;;;;;;4974627;28;20232;-83
2023/10/07 12:05:20;;;;;;;19.73;11.90;;;;;;;;;;4969889;28;20319;-87
2023/10/07 12:07:47;;;;;;;15.43;11.07;;;;;;;;;;4965904;28;20573;-84
2023/10/07 12:10:15;;;;;;;14.13;10.48;;;;;;;;;;5009660;28;20312;-85
2023/10/07 12:12:42;;;;;;;17.95;9.90;;;;;;;;;;4979175;28;20285;-84
2023/10/07 12:15:15;;;;;;;18.35;9.13;;;;;;;;;;4982118;28;20226;-85
2023/10/07 12:17:44;;;;;;;10.15;8.25;;;;;;;;;;5016464;28;20275;-83
2023/10/07 12:20:20;;;;;;;13.25;8.00;;;;;;;;;;5005461;28;20213;-82
2023/10/07 12:22:48;;;;;;;11.07;7.07;;;;;;;;;;5001563;28;20221;-84
2023/10/07 12:25:18;;;;;;;14.07;6.82;;;;;;;;;;4995723;28;20225;-81
2023/10/07 12:27:50;;;;;;;14.18;7.30;;;;;;;;;;4979794;28;20316;-82
2023/10/07 12:30:22;;;;;;;13.48;8.20;;;;;;;;;;4997037;28;20229;-86
2023/10/07 12:32:48;;;;;;;12.80;8.10;;;;;;;;;;5007854;28;20229;-84
2023/10/07 12:35:15;;;;;;;21.05;14.43;;;;;;;;;;4999822;28;20600;-85
2023/10/07 12:37:47;;;;;;;13.55;8.77;;;;;;;;;;4955195;28;20232;-86
2023/10/07 12:40:17;;;;;;;21.75;16.35;;;;;;;;;;4981758;28;20300;-86
2023/10/07 12:42:45;;;;;;;22.58;16.08;;;;;;;;;;5005115;28;20224;-87
2023/10/07 12:45:11;;;;;;;21.33;14.00;;;;;;;;;;4980374;28;20224;-86
2023/10/07 12:47:40;;;;;;;12.88;9.70;;;;;;;;;;4970492;28;20304;-85
2023/10/07 12:52:52;;;;;;;19.38;13.00;;;;;;;;;;4982332;28;20248;-85
2023/10/07 12:55:18;;;;;;;11.43;6.90;;;;;;;;;;4964687;28;20219;-85
2023/10/07 12:57:44;;;;;;;11.88;5.95;;;;;;;;;;4963692;28;20234;-85
2023/10/07 13:00:33;;;;;;;14.10;5.93;;;;;;;;;;4971270;28;20285;-84
2023/10/07 13:03:01;;;;;;;13.38;6.82;;;;;;;;;;4966982;28;20231;-84
2023/10/07 13:05:32;;;;;;;13.38;5.63;;;;;;;;;;4982871;28;20236;-83
2023/10/07 13:08:08;;;;;;;9.95;5.72;;;;;;;;;;5001145;28;20217;-81
2023/10/07 13:10:34;;;;;;;10.57;5.05;;;;;;;;;;4963816;28;20225;-84
2023/10/07 13:13:04;;;;;;;9.20;5.95;;;;;;;;;;4960296;28;20729;-85
2023/10/07 13:15:37;;;;;;;12.82;5.88;;;;;;;;;;5024228;28;20229;-85
2023/10/07 13:18:09;;;;;;;15.98;5.90;;;;;;;;;;4963125;28;20226;-82
2023/10/07 13:20:38;;;;;;;10.93;5.93;;;;;;;;;;4982750;28;20230;-84
2023/10/07 13:23:11;;;;;;;10.73;5.53;;;;;;;;;;4991001;28;20417;-84
2023/10/07 13:25:45;;;;;;;12.23;5.13;;;;;;;;;;4989849;28;20208;-83
2023/10/07 13:28:11;;;;;;;12.38;5.60;;;;;;;;;;5003423;28;20225;-88
2023/10/07 13:30:37;;;;;;;19.05;6.00;;;;;;;;;;4955023;28;20233;-85
2023/10/07 13:33:06;;;;;;;10.15;5.00;;;;;;;;;;4993249;28;20256;-84
2023/10/07 13:35:32;;;;;;;9.38;4.90;;;;;;;;;;4975686;28;20239;-82
2023/10/07 13:37:58;;;;;;;13.65;5.68;;;;;;;;;;4986533;28;20222;-86
2023/10/07 13:40:29;;;;;;;9.32;4.78;;;;;;;;;;4975737;28;20560;-84
2023/10/07 13:42:57;;;;;;;10.43;5.47;;;;;;;;;;4981958;28;20236;-84
2023/10/07 13:45:24;;;;;;;8.13;4.80;;;;;;;;;;4997152;28;20226;-84
2023/10/07 13:47:53;;;;;;;8.70;6.43;;;;;;;;;;4977022;28;20293;-84
2023/10/07 13:50:20;;;;;;;15.20;5.88;;;;;;;;;;4978517;28;20304;-86
2023/10/07 13:53:40;;;;;;;8.23;4.38;;;;;;;;;;4978558;28;20233;-86
2023/10/07 13:58:01;;;;;;;10.77;4.97;;;;;;;;;;4984145;28;20218;-86
2023/10/07 14:00:51;;;;;;;9.32;4.82;;;;;;;;;;4989567;28;20686;-85
2023/10/07 14:03:23;;;;;;;9.90;4.60;;;;;;;;;;4988112;28;20703;-84
2023/10/07 14:05:55;;;;;;;6.45;4.30;;;;;;;;;;4963019;28;20214;-87
2023/10/07 14:08:22;;;;;;;7.28;4.32;;;;;;;;;;4989006;28;20632;-83
2023/10/07 14:10:51;;;;;;;7.80;4.90;;;;;;;;;;4962312;28;20650;-85
2023/10/07 14:13:23;;;;;;;9.70;4.53;;;;;;;;;;4961384;28;20229;-84
2023/10/07 14:15:57;;;;;;;11.63;5.00;;;;;;;;;;4975153;28;20229;-85
2023/10/07 14:18:26;;;;;;;8.88;4.78;;;;;;;;;;4986172;28;20309;-86
2023/10/07 14:20:58;;;;;;;8.15;4.45;;;;;;;;;;4969262;28;20435;-85
2023/10/07 14:23:30;;;;;;;14.10;7.05;;;;;;;;;;4966233;28;20217;-82
2023/10/07 14:26:19;;;;;;;16.70;9.75;;;;;;;;;;4978480;28;20222;-83
2023/10/07 14:28:47;;;;;;;26.00;17.98;;;;;;;;;;4994571;28;20224;-81
2023/10/07 14:31:16;;;;;;;45.58;30.63;;;;;;;;;;4994709;28;20213;-82
2023/10/07 14:33:41;;;;;;;26.08;16.70;;;;;;;;;;4988182;28;20229;-83
2023/10/07 14:36:12;;;;;;;17.25;9.10;;;;;;;;;;4968035;28;20232;-85
2023/10/07 14:38:41;;;;;;;7.70;5.25;;;;;;;;;;4966697;28;20574;-84
2023/10/07 14:41:09;;;;;;;8.82;4.97;;;;;;;;;;4992969;28;20252;-84
2023/10/07 14:43:37;;;;;;;12.20;5.93;;;;;;;;;;4987181;28;20225;-86
2023/10/07 14:46:11;;;;;;;13.55;5.60;;;;;;;;;;4965933;28;20290;-84
2023/10/07 14:48:47;;;;;;;9.75;6.18;;;;;;;;;;4984533;28;20225;-87
2023/10/07 14:51:18;;;;;;;12.52;6.20;;;;;;;;;;4978970;28;20225;-86
2023/10/07 14:53:44;;;;;;;6.45;4.45;;;;;;;;;;4986717;28;20291;-84
2023/10/07 14:56:15;;;;;;;9.65;5.07;;;;;;;;;;4981631;28;20213;-83
2023/10/07 14:58:41;;;;;;;14.73;6.30;;;;;;;;;;4975813;28;20337;-85
2023/10/07 15:01:08;;;;;;;9.85;5.40;;;;;;;;;;4980827;28;20673;-84
2023/10/07 15:03:36;;;;;;;11.45;5.35;;;;;;;;;;4995768;28;20225;-87
2023/10/07 15:06:08;;;;;;;20.85;6.22;;;;;;;;;;4971985;28;20710;-86
2023/10/07 15:08:38;;;;;;;12.95;6.63;;;;;;;;;;5011227;28;20217;-86
2023/10/07 15:11:07;;;;;;;8.70;6.05;;;;;;;;;;4984062;28;20652;-85
2023/10/07 15:13:35;;;;;;;9.82;6.35;;;;;;;;;;4982911;28;20225;-84
2023/10/07 15:16:13;;;;;;;10.27;7.13;;;;;;;;;;5011016;28;20914;-85
2023/10/07 15:18:49;;;;;;;16.38;6.70;;;;;;;;;;4985090;28;20710;-84
2023/10/07 15:21:17;;;;;;;12.73;5.78;;;;;;;;;;4977798;28;20220;-87
2023/10/07 15:23:43;;;;;;;11.63;5.47;;;;;;;;;;4958172;28;20619;-87
2023/10/07 15:26:12;;;;;;;10.45;5.95;;;;;;;;;;4999794;28;20935;-87
2023/10/07 15:28:40;;;;;;;11.68;5.95;;;;;;;;;;4989369;28;20209;-87
2023/10/07 15:31:08;;;;;;;11.25;7.15;;;;;;;;;;5000731;28;20328;-85
2023/10/07 15:33:34;;;;;;;16.15;6.55;;;;;;;;;;5012995;28;20222;-85
2023/10/07 15:36:00;;;;;;;9.82;6.18;;;;;;;;;;5000505;28;20209;-84
2023/10/07 15:38:26;;;;;;;15.23;6.80;;;;;;;;;;4962691;28;20220;-84
2023/10/07 15:40:53;;;;;;;14.85;6.97;;;;;;;;;;4995662;28;20693;-84
2023/10/07 15:43:23;;;;;;;12.93;6.38;;;;;;;;;;4971914;28;20709;-86
2023/10/07 15:45:53;;;;;;;12.65;5.88;;;;;;;;;;4986877;28;20232;-85
2023/10/07 15:48:25;;;;;;;9.45;5.80;;;;;;;;;;4979942;28;20221;-86